Time;durP1;ratioP1;P1;durP2;ratioP2;P2;SDS_P1;SDS_P2;PMS_P1;PMS_P2;Temp;Humidity;BMP_temperature;BMP_pressure;BME280_temperature;BME280_humidity;BME280_pressure;Samples;Min_cycle;Max_cycle;Signal;HPM_P1;HPM_P2
2021/03/09 00:00:07;;;;;;;;;;;;;;;-3.77;66.28;101590.13;1601685;88;20317;-74
2021/03/09 00:02:52;;;;;;;;;;;;;;;-3.80;66.27;101589.95;1572733;89;20299;-74
2021/03/09 00:05:37;;;;;;;;;;;;;;;-3.82;66.31;101588.59;1579710;89;20664;-74
2021/03/09 00:08:21;;;;;;;;;;;;;;;-3.86;66.12;101590.86;1581912;87;20606;-74
2021/03/09 00:11:06;;;;;;;;;;;;;;;-3.87;66.29;101595.44;1576158;89;20336;-74
2021/03/09 00:13:51;;;;;;;;;;;;;;;-3.89;66.32;101591.95;1583155;88;20319;-74
2021/03/09 00:16:35;;;;;;;;;;;;;;;-3.90;66.19;101592.34;1571242;89;20618;-74
2021/03/09 00:19:20;;;;;;;;;;;;;;;-3.93;66.17;101593.42;1580076;89;20302;-74
2021/03/09 00:22:05;;;;;;;;;;;;;;;-3.95;66.38;101595.38;1560397;89;20341;-74
2021/03/09 00:24:49;;;;;;;;;;;;;;;-3.94;66.39;101594.20;1605121;88;20303;-74
2021/03/09 00:27:34;;;;;;;;;;;;;;;-3.92;66.50;101594.30;1602549;88;20205;-74
2021/03/09 00:30:20;;;;;;;;;;;;;;;-3.92;66.34;101598.09;1596215;87;20315;-74
2021/03/09 00:33:05;;;;;;;;;;;;;;;-3.94;66.41;101605.57;1575421;89;20306;-74
2021/03/09 00:35:49;;;;;;;;;;;;;;;-3.97;66.44;101600.73;1578251;89;21301;-74
2021/03/09 00:38:34;;;;;;;;;;;;;;;-3.99;66.55;101603.17;1565501;89;20304;-74
2021/03/09 00:41:19;;;;;;;;;;;;;;;-3.99;66.39;101599.38;1586357;88;20321;-75
2021/03/09 00:44:04;;;;;;;;;;;;;;;-4.02;66.30;101597.94;1594871;88;20297;-74
2021/03/09 00:46:49;;;;;;;;;;;;;;;-4.05;66.41;101604.08;1602309;87;20307;-74
2021/03/09 00:49:35;;;;;;;;;;;;;;;-4.05;66.52;101602.42;1582457;89;20287;-75
2021/03/09 00:52:20;;;;;;;;;;;;;;;-4.07;66.30;101605.64;1576908;89;20319;-74
2021/03/09 00:55:06;;;;;;;;;;;;;;;-4.13;66.53;101596.44;1583812;89;20317;-74
2021/03/09 00:57:55;;;;;;;;;;;;;;;-4.12;66.56;101597.79;1574945;90;20310;-74
2021/03/09 01:00:40;;;;;;;;;;;;;;;-4.12;66.56;101598.18;1572292;90;20942;-74
2021/03/09 01:03:24;;;;;;;;;;;;;;;-4.18;66.39;101595.33;1568824;89;21220;-74
2021/03/09 01:06:09;;;;;;;;;;;;;;;-4.28;66.44;101593.91;1579918;89;20356;-74
2021/03/09 01:08:54;;;;;;;;;;;;;;;-4.37;66.62;101594.62;1602339;87;20305;-74
2021/03/09 01:11:39;;;;;;;;;;;;;;;-4.37;66.80;101596.77;1581477;89;20389;-74
2021/03/09 01:14:23;;;;;;;;;;;;;;;-4.34;66.69;101591.02;1585933;88;20349;-74
2021/03/09 01:17:08;;;;;;;;;;;;;;;-4.39;66.60;101588.62;1584644;89;20315;-74
2021/03/09 01:19:53;;;;;;;;;;;;;;;-4.41;66.65;101587.27;1579531;89;20315;-75
2021/03/09 01:22:38;;;;;;;;;;;;;;;-4.43;66.60;101589.22;1570833;89;20316;-75
2021/03/09 01:25:23;;;;;;;;;;;;;;;-4.45;66.74;101586.59;1576671;89;20274;-75
2021/03/09 01:28:07;;;;;;;;;;;;;;;-4.44;66.88;101585.82;1586063;89;20478;-75
2021/03/09 01:30:52;;;;;;;;;;;;;;;-4.49;66.63;101577.49;1572840;89;20429;-76
2021/03/09 01:33:37;;;;;;;;;;;;;;;-4.51;66.73;101571.48;1564673;89;20285;-75
2021/03/09 01:36:22;;;;;;;;;;;;;;;-4.53;66.86;101567.99;1573964;90;20285;-76
2021/03/09 01:39:06;;;;;;;;;;;;;;;-4.55;66.93;101568.29;1560752;89;20293;-75
2021/03/09 01:41:50;;;;;;;;;;;;;;;-4.52;66.91;101565.95;1577481;89;20316;-74
2021/03/09 01:44:35;;;;;;;;;;;;;;;-4.51;66.82;101563.52;1572367;89;20271;-74
2021/03/09 01:47:20;;;;;;;;;;;;;;;-4.48;67.10;101560.30;1577460;89;20488;-75
2021/03/09 01:50:06;;;;;;;;;;;;;;;-4.44;67.10;101555.92;1577544;89;20202;-75
2021/03/09 01:52:51;;;;;;;;;;;;;;;-4.41;66.87;101556.10;1563645;89;20272;-75
2021/03/09 01:55:36;;;;;;;;;;;;;;;-4.45;66.92;101556.70;1572735;89;20550;-75
2021/03/09 01:58:22;;;;;;;;;;;;;;;-4.46;66.91;101553.70;1576361;89;20323;-75
2021/03/09 02:01:06;;;;;;;;;;;;;;;-4.45;67.05;101556.70;1575255;89;20314;-74
2021/03/09 02:03:51;;;;;;;;;;;;;;;-4.43;67.03;101557.66;1573738;89;20238;-74
2021/03/09 02:06:36;;;;;;;;;;;;;;;-4.42;67.16;101555.63;1563567;89;21079;-74
2021/03/09 02:09:21;;;;;;;;;;;;;;;-4.41;67.04;101558.63;1574529;89;20294;-74
2021/03/09 02:12:10;;;;;;;;;;;;;;;-4.42;67.04;101559.41;1562649;89;20650;-75
2021/03/09 02:15:31;;;;;;;;;;;;;;;-4.48;66.94;101559.05;1577497;89;20317;-74
2021/03/09 02:18:38;;;;;;;;;;;;;;;-4.53;67.09;101565.47;1575482;89;20307;-75
2021/03/09 02:21:28;;;;;;;;;;;;;;;-4.53;67.22;101559.16;1568577;89;20319;-75
2021/03/09 02:24:32;;;;;;;;;;;;;;;-4.53;67.28;101560.03;1567759;89;20452;-75
2021/03/09 02:27:24;;;;;;;;;;;;;;;-4.54;67.10;101554.89;1582441;89;20235;-74
2021/03/09 02:30:30;;;;;;;;;;;;;;;-4.62;67.12;101556.09;1576764;90;20300;-74
2021/03/09 02:33:17;;;;;;;;;;;;;;;-4.68;67.16;101556.20;1575905;89;20537;-75
2021/03/09 02:36:04;;;;;;;;;;;;;;;-4.73;67.27;101556.34;1582385;88;20304;-75
2021/03/09 02:38:57;;;;;;;;;;;;;;;-4.73;67.29;101557.61;1553452;90;20315;-75
2021/03/09 02:41:47;;;;;;;;;;;;;;;-4.76;67.42;101548.98;1565570;89;20429;-75
2021/03/09 02:44:33;;;;;;;;;;;;;;;-4.73;67.49;101550.03;1570836;89;20311;-75
2021/03/09 02:47:19;;;;;;;;;;;;;;;-4.71;67.56;101548.48;1566926;90;20985;-76
2021/03/09 02:50:06;;;;;;;;;;;;;;;-4.68;67.48;101543.58;1591049;88;20293;-75
2021/03/09 02:52:59;;;;;;;;;;;;;;;-4.67;67.35;101543.19;1576205;89;20296;-75
2021/03/09 02:55:45;;;;;;;;;;;;;;;-4.71;67.32;101540.91;1596065;88;20573;-75
2021/03/09 02:58:30;;;;;;;;;;;;;;;-4.70;67.45;101536.73;1599142;87;20321;-75
2021/03/09 03:01:16;;;;;;;;;;;;;;;-4.67;67.55;101535.63;1601086;89;20329;-75
2021/03/09 03:04:02;;;;;;;;;;;;;;;-4.64;67.54;101542.11;1593716;88;20226;-75
2021/03/09 03:06:48;;;;;;;;;;;;;;;-4.70;67.47;101531.30;1602412;88;20286;-75
2021/03/09 03:09:32;;;;;;;;;;;;;;;-4.76;67.59;101539.77;1601296;88;20541;-75
2021/03/09 03:12:17;;;;;;;;;;;;;;;-4.74;67.68;101533.55;1597137;88;20317;-75
2021/03/09 03:15:03;;;;;;;;;;;;;;;-4.70;67.82;101543.05;1594395;88;20204;-75
2021/03/09 03:17:48;;;;;;;;;;;;;;;-4.66;67.72;101539.50;1603008;88;20739;-75
2021/03/09 03:20:33;;;;;;;;;;;;;;;-4.70;67.68;101543.05;1609920;88;20588;-75
2021/03/09 03:23:18;;;;;;;;;;;;;;;-4.69;67.65;101544.40;1594732;88;20482;-75
2021/03/09 03:26:05;;;;;;;;;;;;;;;-4.70;67.64;101540.12;1580920;89;20612;-75
2021/03/09 03:28:49;;;;;;;;;;;;;;;-4.75;67.65;101541.89;1596265;88;20301;-76
2021/03/09 03:31:34;;;;;;;;;;;;;;;-4.78;67.74;101532.48;1601393;88;20277;-76
2021/03/09 03:34:19;;;;;;;;;;;;;;;-4.79;67.76;101534.53;1603864;88;20302;-76
2021/03/09 03:37:03;;;;;;;;;;;;;;;-4.82;67.77;101527.17;1603250;88;20285;-76
2021/03/09 03:39:47;;;;;;;;;;;;;;;-4.83;67.85;101526.30;1600885;88;20486;-75
2021/03/09 03:42:32;;;;;;;;;;;;;;;-4.78;68.17;101531.23;1600070;89;20329;-75
2021/03/09 03:45:21;;;;;;;;;;;;;;;-4.72;68.00;101531.98;1592889;88;20328;-75
2021/03/09 03:48:06;;;;;;;;;;;;;;;-4.70;68.12;101526.25;1598605;88;20285;-75
2021/03/09 03:50:52;;;;;;;;;;;;;;;-4.76;68.09;101524.63;1573054;89;20441;-75
2021/03/09 03:53:59;;;;;;;;;;;;;;;-4.73;68.25;101527.72;1529062;91;20398;-76
2021/03/09 03:56:59;;;;;;;;;;;;;;;-4.70;68.27;101531.30;1539539;91;20313;-74
2021/03/09 03:59:46;;;;;;;;;;;;;;;-4.62;68.54;101529.59;1518424;93;20329;-74
2021/03/09 04:02:31;;;;;;;;;;;;;;;-4.54;68.53;101524.22;1522843;93;20299;-75
2021/03/09 04:05:18;;;;;;;;;;;;;;;-4.47;68.45;101521.66;1514792;94;20469;-75
2021/03/09 04:08:03;;;;;;;;;;;;;;;-4.46;68.30;101519.62;1554671;90;20640;-75
2021/03/09 04:10:49;;;;;;;;;;;;;;;-4.51;68.26;101518.09;1532672;91;20341;-75
2021/03/09 04:13:36;;;;;;;;;;;;;;;-4.54;68.33;101522.09;1518238;91;20321;-75
2021/03/09 04:16:21;;;;;;;;;;;;;;;-4.59;68.32;101520.55;1543006;91;20304;-74
2021/03/09 04:19:06;;;;;;;;;;;;;;;-4.60;68.43;101519.20;1535515;90;20514;-74
2021/03/09 04:21:50;;;;;;;;;;;;;;;-4.60;68.50;101519.20;1573391;89;20255;-75
2021/03/09 04:24:35;;;;;;;;;;;;;;;-4.59;68.50;101515.89;1574181;89;20337;-75
2021/03/09 04:27:21;;;;;;;;;;;;;;;-4.57;68.66;101511.81;1572493;89;20303;-75
2021/03/09 04:30:06;;;;;;;;;;;;;;;-4.54;68.63;101515.39;1543229;91;20304;-75
2021/03/09 04:32:52;;;;;;;;;;;;;;;-4.52;68.68;101511.69;1519373;92;20328;-76
2021/03/09 04:35:36;;;;;;;;;;;;;;;-4.49;68.73;101509.34;1534067;93;20597;-76
2021/03/09 04:38:21;;;;;;;;;;;;;;;-4.46;68.66;101512.92;1509941;93;20302;-75
2021/03/09 04:41:06;;;;;;;;;;;;;;;-4.46;68.59;101510.40;1534552;91;20298;-74
2021/03/09 04:43:50;;;;;;;;;;;;;;;-4.46;68.77;101507.00;1570980;89;20557;-74
2021/03/09 04:46:35;;;;;;;;;;;;;;;-4.45;68.82;101504.96;1542493;91;21228;-74
2021/03/09 04:49:20;;;;;;;;;;;;;;;-4.44;68.71;101509.23;1526948;91;20342;-74
2021/03/09 04:52:05;;;;;;;;;;;;;;;-4.49;68.65;101512.74;1580837;89;20322;-74
2021/03/09 04:54:50;;;;;;;;;;;;;;;-4.53;68.57;101513.34;1575673;89;20325;-74
2021/03/09 04:57:40;;;;;;;;;;;;;;;-4.57;68.68;101513.94;1579724;89;20312;-74
2021/03/09 05:00:25;;;;;;;;;;;;;;;-4.62;68.77;101514.06;1580724;89;20329;-74
2021/03/09 05:03:10;;;;;;;;;;;;;;;-4.63;68.97;101502.22;1592703;88;20622;-75
2021/03/09 05:05:54;;;;;;;;;;;;;;;-4.60;69.10;101511.63;1586538;88;20334;-75
2021/03/09 05:08:39;;;;;;;;;;;;;;;-4.55;69.23;101506.07;1581039;88;20653;-74
2021/03/09 05:11:23;;;;;;;;;;;;;;;-4.54;69.09;101506.95;1573572;88;20318;-75
2021/03/09 05:14:08;;;;;;;;;;;;;;;-4.54;69.27;101506.95;1574555;89;20343;-74
2021/03/09 05:16:53;;;;;;;;;;;;;;;-4.54;69.22;101514.52;1581384;89;20709;-74
2021/03/09 05:19:37;;;;;;;;;;;;;;;-4.59;69.03;101510.84;1582851;88;20322;-74
2021/03/09 05:22:22;;;;;;;;;;;;;;;-4.70;68.97;101507.72;1583591;88;20338;-74
2021/03/09 05:25:10;;;;;;;;;;;;;;;-4.74;69.17;101511.71;1588289;88;20307;-75
2021/03/09 05:27:55;;;;;;;;;;;;;;;-4.69;69.28;101509.08;1586178;88;20338;-75
2021/03/09 05:30:39;;;;;;;;;;;;;;;-4.73;69.13;101507.14;1586278;88;20306;-76
2021/03/09 05:33:24;;;;;;;;;;;;;;;-4.78;69.12;101502.61;1590360;88;20322;-76
2021/03/09 05:36:08;;;;;;;;;;;;;;;-4.77;69.45;101503.96;1583012;89;20318;-75
2021/03/09 05:38:53;;;;;;;;;;;;;;;-4.67;69.43;101513.78;1588040;88;21147;-74
2021/03/09 05:41:38;;;;;;;;;;;;;;;-4.59;69.54;101507.94;1599652;88;21242;-73
2021/03/09 05:44:22;;;;;;;;;;;;;;;-4.53;69.48;101510.82;1576825;88;20329;-75
2021/03/09 05:47:07;;;;;;;;;;;;;;;-4.53;69.53;101514.61;1584454;88;20351;-73
2021/03/09 05:49:52;;;;;;;;;;;;;;;-4.46;69.66;101509.14;1595015;88;20598;-73
2021/03/09 05:52:36;;;;;;;;;;;;;;;-4.40;69.59;101513.67;1571911;88;20588;-73
2021/03/09 05:55:21;;;;;;;;;;;;;;;-4.37;69.55;101509.67;1595621;88;20323;-73
2021/03/09 05:58:05;;;;;;;;;;;;;;;-4.29;69.67;101515.17;1600221;88;20336;-73
2021/03/09 06:00:50;;;;;;;;;;;;;;;-4.18;69.92;101511.61;1598400;88;20361;-73
2021/03/09 06:03:35;;;;;;;;;;;;;;;-3.95;70.07;101512.02;1590315;88;20323;-74
2021/03/09 06:06:19;;;;;;;;;;;;;;;-3.65;70.08;101507.81;1601546;88;21010;-73
2021/03/09 06:09:20;;;;;;;;;;;;;;;-3.44;70.06;101508.57;1594205;88;21434;-73
2021/03/09 06:12:10;;;;;;;;;;;;;;;-3.10;70.08;101511.63;1558965;88;20300;-74
2021/03/09 06:14:59;;;;;;;;;;;;;;;-2.69;70.29;101510.00;1595226;88;20336;-73
2021/03/09 06:17:53;;;;;;;;;;;;;;;-2.22;70.23;101515.31;1603713;88;20715;-76
2021/03/09 06:20:37;;;;;;;;;;;;;;;-1.75;70.31;101513.41;1568817;90;20321;-75
2021/03/09 06:23:28;;;;;;;;;;;;;;;-1.28;70.22;101512.21;1557071;89;20302;-75
2021/03/09 06:26:35;;;;;;;;;;;;;;;-1.06;69.69;101512.39;1567049;91;20317;-75
2021/03/09 06:29:20;;;;;;;;;;;;;;;-0.87;69.81;101519.53;1555158;90;20293;-75
2021/03/09 06:32:05;;;;;;;;;;;;;;;-0.57;69.78;101525.10;1565971;90;20297;-75
2021/03/09 06:34:53;;;;;;;;;;;;;;;-0.44;69.74;101520.98;1598639;88;20304;-75
2021/03/09 06:37:37;;;;;;;;;;;;;;;-0.17;69.88;101523.43;1596991;88;20316;-75
2021/03/09 06:40:22;;;;;;;;;;;;;;;0.10;69.86;101515.17;1602268;86;20180;-74
2021/03/09 06:43:17;;;;;;;;;;;;;;;0.36;69.78;101526.00;1601890;88;20201;-74
2021/03/09 06:46:18;;;;;;;;;;;;;;;0.57;69.68;101529.36;1603725;88;20270;-75
2021/03/09 06:49:04;;;;;;;;;;;;;;;0.75;69.58;101519.02;1601471;88;20314;-75
2021/03/09 06:51:48;;;;;;;;;;;;;;;0.93;69.42;101520.99;1592452;88;20310;-76
2021/03/09 06:54:41;;;;;;;;;;;;;;;0.97;69.31;101525.80;1609097;88;20298;-75
2021/03/09 06:57:26;;;;;;;;;;;;;;;1.03;69.34;101528.98;1598764;88;20293;-76
2021/03/09 07:00:11;;;;;;;;;;;;;;;1.10;69.39;101531.78;1613368;87;20672;-76
2021/03/09 07:02:57;;;;;;;;;;;;;;;1.18;69.38;101528.23;1608044;86;20256;-76
2021/03/09 07:05:54;;;;;;;;;;;;;;;1.34;69.45;101535.63;1612973;88;20475;-76
2021/03/09 07:08:39;;;;;;;;;;;;;;;1.51;69.62;101533.69;1617658;88;20186;-76
2021/03/09 07:11:24;;;;;;;;;;;;;;;1.73;69.67;101540.38;1611402;86;20274;-76
2021/03/09 07:14:12;;;;;;;;;;;;;;;1.98;69.66;101539.13;1611310;86;20274;-76
2021/03/09 07:17:02;;;;;;;;;;;;;;;2.18;69.50;101539.34;1601290;88;20270;-76
2021/03/09 07:19:47;;;;;;;;;;;;;;;2.41;69.42;101541.78;1619714;87;20497;-75
2021/03/09 07:22:32;;;;;;;;;;;;;;;2.60;69.50;101548.76;1610305;88;20291;-75
2021/03/09 07:25:18;;;;;;;;;;;;;;;2.85;69.49;101543.13;1615681;88;20322;-76
2021/03/09 07:28:04;;;;;;;;;;;;;;;3.01;69.37;101549.16;1604220;87;20338;-76
2021/03/09 07:30:51;;;;;;;;;;;;;;;3.20;69.40;101539.03;1601913;88;20319;-75
2021/03/09 07:33:36;;;;;;;;;;;;;;;3.40;69.37;101546.86;1606781;87;20672;-75
2021/03/09 07:36:21;;;;;;;;;;;;;;;3.55;69.09;101539.62;1605357;87;20312;-75
2021/03/09 07:39:06;;;;;;;;;;;;;;;3.68;69.24;101542.47;1604454;87;20703;-75
2021/03/09 07:41:51;;;;;;;;;;;;;;;3.83;69.19;101541.60;1589236;87;20293;-75
2021/03/09 07:44:40;;;;;;;;;;;;;;;4.03;69.21;101536.59;1604553;87;20300;-75
2021/03/09 07:47:25;;;;;;;;;;;;;;;4.15;69.08;101537.31;1596680;87;21241;-75
2021/03/09 07:50:13;;;;;;;;;;;;;;;4.28;69.23;101538.04;1604544;87;20694;-74
2021/03/09 07:53:14;;;;;;;;;;;;;;;4.46;69.28;101530.80;1598949;88;20309;-74
2021/03/09 07:56:12;;;;;;;;;;;;;;;4.60;68.94;101528.14;1602533;88;20348;-75
2021/03/09 07:59:07;;;;;;;;;;;;;;;4.58;68.52;101534.93;1588234;89;20346;-74
2021/03/09 08:01:51;;;;;;;;;;;;;;;4.56;68.83;101530.19;1564021;90;20334;-74
2021/03/09 08:04:39;;;;;;;;;;;;;;;4.66;68.61;101526.14;1556775;91;20345;-74
2021/03/09 08:07:46;;;;;;;;;;;;;;;4.86;68.65;101518.45;1563272;90;20324;-75
2021/03/09 08:10:37;;;;;;;;;;;;;;;4.95;68.44;101519.06;1552316;90;20294;-75
2021/03/09 08:13:22;;;;;;;;;;;;;;;4.85;68.59;101518.42;1577609;90;20335;-75
2021/03/09 08:16:24;;;;;;;;;;;;;;;4.64;68.63;101506.89;1581336;88;20320;-75
2021/03/09 08:19:09;;;;;;;;;;;;;;;4.50;68.55;101505.72;1577298;89;20298;-74
2021/03/09 08:22:02;;;;;;;;;;;;;;;4.43;68.84;101506.81;1569565;90;20303;-74
2021/03/09 08:24:50;;;;;;;;;;;;;;;4.31;68.78;101506.98;1567844;90;20311;-74
2021/03/09 08:27:36;;;;;;;;;;;;;;;4.20;68.88;101501.15;1556532;91;20187;-75
2021/03/09 08:30:29;;;;;;;;;;;;;;;4.16;68.84;101495.53;1574101;90;20291;-74
2021/03/09 08:33:27;;;;;;;;;;;;;;;4.09;68.92;101500.92;1549950;90;20491;-74
2021/03/09 08:36:26;;;;;;;;;;;;;;;4.08;68.92;101496.62;1601569;88;20268;-74
2021/03/09 08:39:12;;;;;;;;;;;;;;;4.01;68.78;101494.74;1605534;88;20280;-74
2021/03/09 08:41:56;;;;;;;;;;;;;;;3.91;68.66;101502.60;1604700;88;20270;-74
2021/03/09 08:44:41;;;;;;;;;;;;;;;3.88;68.68;101498.69;1604137;88;20276;-74
2021/03/09 08:47:29;;;;;;;;;;;;;;;3.94;68.79;101491.16;1603698;88;20177;-74
2021/03/09 08:50:16;;;;;;;;;;;;;;;4.05;68.62;101496.55;1607238;88;20273;-74
2021/03/09 08:53:01;;;;;;;;;;;;;;;4.18;68.68;101487.03;1598379;88;20308;-74
2021/03/09 08:55:57;;;;;;;;;;;;;;;4.49;68.60;101482.22;1558791;90;20278;-74
2021/03/09 08:58:41;;;;;;;;;;;;;;;4.55;68.58;101487.89;1570051;89;20280;-75
2021/03/09 09:01:26;;;;;;;;;;;;;;;4.34;68.75;101486.98;1571630;89;20280;-75
2021/03/09 09:04:19;;;;;;;;;;;;;;;4.15;68.80;101486.12;1563152;90;20206;-75
2021/03/09 09:07:25;;;;;;;;;;;;;;;3.92;68.58;101482.59;1571584;89;20288;-75
2021/03/09 09:10:12;;;;;;;;;;;;;;;3.72;68.79;101476.52;1555785;90;20304;-76
2021/03/09 09:12:57;;;;;;;;;;;;;;;3.64;68.71;101474.63;1571217;89;20608;-75
2021/03/09 09:15:41;;;;;;;;;;;;;;;3.54;68.50;101470.13;1568940;89;20315;-75
2021/03/09 09:18:27;;;;;;;;;;;;;;;3.43;68.63;101474.50;1560161;90;20312;-75
2021/03/09 09:21:11;;;;;;;;;;;;;;;3.30;68.45;101472.02;1569855;89;20668;-75
2021/03/09 09:23:56;;;;;;;;;;;;;;;3.23;68.52;101473.95;1568783;89;20336;-74
2021/03/09 09:26:42;;;;;;;;;;;;;;;3.21;68.64;101469.21;1557949;90;20314;-74
2021/03/09 09:29:27;;;;;;;;;;;;;;;3.22;68.46;101474.36;1606079;87;20296;-74
2021/03/09 09:32:11;;;;;;;;;;;;;;;3.19;68.31;101461.91;1604720;87;20435;-74
2021/03/09 09:34:58;;;;;;;;;;;;;;;3.16;68.13;101461.83;1604648;87;20541;-74
2021/03/09 09:37:48;;;;;;;;;;;;;;;3.11;68.02;101464.28;1606049;87;21072;-74
2021/03/09 09:40:36;;;;;;;;;;;;;;;3.11;67.70;101460.45;1600618;87;20677;-74
2021/03/09 09:43:22;;;;;;;;;;;;;;;3.08;67.75;101464.61;1610955;86;20248;-74
2021/03/09 09:46:19;;;;;;;;;;;;;;;3.07;67.64;101466.30;1607769;87;20320;-74
2021/03/09 09:49:04;;;;;;;;;;;;;;;3.08;67.49;101464.20;1608611;87;20332;-74
2021/03/09 09:51:48;;;;;;;;;;;;;;;3.09;67.55;101465.94;1607502;87;20333;-74
2021/03/09 09:54:34;;;;;;;;;;;;;;;3.08;67.56;101464.20;1599514;88;20312;-74
2021/03/09 09:57:18;;;;;;;;;;;;;;;3.14;67.44;101463.06;1597991;88;20328;-74
2021/03/09 10:00:14;;;;;;;;;;;;;;;3.20;67.39;101463.64;1602202;88;20585;-74
2021/03/09 10:03:09;;;;;;;;;;;;;;;3.26;67.18;101460.84;1600044;88;20624;-74
2021/03/09 10:05:54;;;;;;;;;;;;;;;3.28;66.97;101460.89;1595375;88;20342;-74
2021/03/09 10:08:39;;;;;;;;;;;;;;;3.35;67.00;101463.20;1602083;88;20257;-74
2021/03/09 10:11:24;;;;;;;;;;;;;;;3.41;66.89;101464.64;1602134;88;20260;-75
2021/03/09 10:14:08;;;;;;;;;;;;;;;3.45;66.84;101467.73;1603931;88;20288;-74
2021/03/09 10:16:53;;;;;;;;;;;;;;;3.47;66.87;101469.92;1600817;88;20295;-74
2021/03/09 10:19:39;;;;;;;;;;;;;;;3.55;66.72;101473.55;1607919;86;20309;-74
2021/03/09 10:22:25;;;;;;;;;;;;;;;3.58;66.55;101465.95;1601844;88;20197;-75
2021/03/09 10:25:16;;;;;;;;;;;;;;;3.65;66.49;101460.14;1605114;88;20503;-75
2021/03/09 10:28:02;;;;;;;;;;;;;;;3.73;66.44;101466.32;1607955;88;20890;-75
2021/03/09 10:30:46;;;;;;;;;;;;;;;3.68;66.31;101462.77;1603059;88;20317;-75
2021/03/09 10:33:31;;;;;;;;;;;;;;;3.62;66.09;101470.32;1596922;88;20325;-75
2021/03/09 10:36:15;;;;;;;;;;;;;;;3.53;66.11;101472.64;1605084;88;20286;-74
2021/03/09 10:39:12;;;;;;;;;;;;;;;3.51;66.25;101466.62;1603866;88;20293;-75
2021/03/09 10:41:58;;;;;;;;;;;;;;;3.48;66.12;101466.53;1601306;88;20492;-74
2021/03/09 10:44:42;;;;;;;;;;;;;;;3.45;66.10;101456.23;1602300;88;20293;-75
2021/03/09 10:47:27;;;;;;;;;;;;;;;3.46;66.14;101459.23;1601190;88;20282;-75
2021/03/09 10:50:11;;;;;;;;;;;;;;;3.48;66.15;101453.34;1601392;88;20349;-74
2021/03/09 10:52:56;;;;;;;;;;;;;;;3.45;65.96;101449.42;1598627;88;20615;-74
2021/03/09 10:55:40;;;;;;;;;;;;;;;3.43;65.97;101449.80;1599998;88;20322;-74
2021/03/09 10:58:25;;;;;;;;;;;;;;;3.50;66.18;101449.55;1605170;88;20310;-74
2021/03/09 11:01:09;;;;;;;;;;;;;;;3.55;66.03;101447.98;1601149;88;20406;-75
2021/03/09 11:03:54;;;;;;;;;;;;;;;3.57;65.96;101452.30;1601657;88;20312;-75
2021/03/09 11:06:38;;;;;;;;;;;;;;;3.59;66.00;101441.70;1583598;88;20327;-74
2021/03/09 11:09:23;;;;;;;;;;;;;;;3.62;65.71;101440.92;1597938;87;512864;-74
2021/03/09 11:12:08;;;;;;;;;;;;;;;3.66;65.67;101444.84;1601709;88;20304;-75
2021/03/09 11:14:53;;;;;;;;;;;;;;;3.70;65.93;101441.08;1600225;88;20315;-74
2021/03/09 11:17:37;;;;;;;;;;;;;;;3.79;65.81;101438.34;1600775;88;20569;-74
2021/03/09 11:20:22;;;;;;;;;;;;;;;3.85;65.77;101428.67;1603177;87;20336;-74
2021/03/09 11:23:07;;;;;;;;;;;;;;;3.93;65.68;101431.00;1598832;88;20310;-74
2021/03/09 11:25:51;;;;;;;;;;;;;;;3.99;65.58;101421.78;1601756;88;20365;-74
2021/03/09 11:28:36;;;;;;;;;;;;;;;4.05;65.46;101424.89;1604352;87;20590;-74
2021/03/09 11:35:01;;;;;;;;;;;;;;;4.05;65.19;101415.94;1600785;88;20318;-74
2021/03/09 11:37:45;;;;;;;;;;;;;;;4.02;65.30;101413.72;1600919;88;20695;-74
2021/03/09 11:40:30;;;;;;;;;;;;;;;4.03;65.28;101411.20;1602225;88;20324;-74
2021/03/09 11:43:14;;;;;;;;;;;;;;;3.95;64.83;101408.46;1603803;88;20311;-74
2021/03/09 11:45:59;;;;;;;;;;;;;;;3.90;65.05;101404.06;1598689;88;20288;-75
2021/03/09 11:48:44;;;;;;;;;;;;;;;3.85;64.97;101401.39;1601709;88;20464;-74
2021/03/09 11:51:28;;;;;;;;;;;;;;;3.79;64.93;101399.10;1600002;88;20300;-74
2021/03/09 11:54:13;;;;;;;;;;;;;;;3.73;64.83;101402.79;1598552;88;20324;-74
2021/03/09 11:56:58;;;;;;;;;;;;;;;3.69;64.74;101398.42;1602633;88;20269;-75
2021/03/09 11:59:42;;;;;;;;;;;;;;;3.65;64.93;101391.09;1603327;88;20595;-75
2021/03/09 12:02:28;;;;;;;;;;;;;;;3.68;64.80;101387.33;1600839;88;20816;-75
2021/03/09 12:05:12;;;;;;;;;;;;;;;3.70;64.91;101390.79;1601047;88;20494;-74
2021/03/09 12:07:57;;;;;;;;;;;;;;;3.78;64.99;101382.02;1598807;88;20264;-74
2021/03/09 12:10:41;;;;;;;;;;;;;;;3.84;64.76;101380.48;1602105;88;20272;-74
2021/03/09 12:13:26;;;;;;;;;;;;;;;3.87;64.56;101383.52;1602371;88;20265;-74
2021/03/09 12:16:11;;;;;;;;;;;;;;;3.85;64.55;101377.50;1600687;88;20328;-75
2021/03/09 12:18:55;;;;;;;;;;;;;;;3.88;64.50;101373.73;1604264;88;20269;-74
2021/03/09 12:21:39;;;;;;;;;;;;;;;3.89;64.24;101374.19;1602146;88;20276;-73
2021/03/09 12:24:23;;;;;;;;;;;;;;;3.95;64.54;101379.03;1602967;88;20270;-74
2021/03/09 12:27:08;;;;;;;;;;;;;;;3.98;64.41;101368.01;1598807;88;20275;-72
2021/03/09 12:29:52;;;;;;;;;;;;;;;3.97;64.40;101363.30;1599981;88;20186;-74
2021/03/09 12:32:37;;;;;;;;;;;;;;;3.97;64.37;101361.16;1603814;88;20267;-75
2021/03/09 12:35:22;;;;;;;;;;;;;;;3.97;64.33;101359.47;1602401;88;20277;-74
2021/03/09 12:38:06;;;;;;;;;;;;;;;4.01;64.23;101356.98;1599393;88;20472;-74
2021/03/09 12:40:51;;;;;;;;;;;;;;;4.04;64.09;101352.80;1602510;88;20297;-74
2021/03/09 12:43:35;;;;;;;;;;;;;;;4.05;64.15;101346.84;1601424;88;20260;-75
2021/03/09 12:46:19;;;;;;;;;;;;;;;4.10;64.09;101341.83;1585625;88;20260;-74
2021/03/09 12:49:04;;;;;;;;;;;;;;;4.12;64.08;101335.05;1603894;88;20268;-74
2021/03/09 12:51:48;;;;;;;;;;;;;;;4.15;63.99;101327.44;1601034;88;20265;-74
2021/03/09 12:54:33;;;;;;;;;;;;;;;4.20;64.05;101329.23;1601343;86;20181;-75
2021/03/09 12:57:17;;;;;;;;;;;;;;;4.24;63.96;101319.51;1593036;89;20286;-75
2021/03/09 13:00:04;;;;;;;;;;;;;;;4.28;63.93;101314.03;1605175;88;20473;-75
2021/03/09 13:02:49;;;;;;;;;;;;;;;4.33;63.86;101313.30;1594849;89;20445;-75
2021/03/09 13:05:33;;;;;;;;;;;;;;;4.36;63.80;101312.91;1599934;88;20264;-75
2021/03/09 13:08:18;;;;;;;;;;;;;;;4.37;63.72;101314.23;1592207;88;20277;-75
2021/03/09 13:11:02;;;;;;;;;;;;;;;4.30;63.65;101311.09;1579247;89;20187;-75
2021/03/09 13:13:47;;;;;;;;;;;;;;;4.29;63.65;101307.67;1601347;88;20310;-74
2021/03/09 13:16:32;;;;;;;;;;;;;;;4.30;63.53;101302.14;1603049;88;20195;-74
2021/03/09 13:19:17;;;;;;;;;;;;;;;4.28;63.48;101296.98;1606650;88;20275;-74
2021/03/09 13:22:01;;;;;;;;;;;;;;;4.29;63.43;101301.69;1599874;88;20258;-74
2021/03/09 13:24:47;;;;;;;;;;;;;;;4.36;63.50;101296.28;1603960;88;20265;-74
2021/03/09 13:27:31;;;;;;;;;;;;;;;4.41;63.41;101296.81;1603444;88;20277;-73
2021/03/09 13:30:17;;;;;;;;;;;;;;;4.45;63.38;101287.08;1601638;88;20269;-73
2021/03/09 13:33:02;;;;;;;;;;;;;;;4.46;63.28;101282.41;1601678;88;20286;-73
2021/03/09 13:35:46;;;;;;;;;;;;;;;4.51;63.38;101279.94;1601413;88;20174;-74
2021/03/09 13:38:30;;;;;;;;;;;;;;;4.55;63.24;101276.19;1602112;88;20444;-73
2021/03/09 13:41:15;;;;;;;;;;;;;;;4.56;63.20;101271.51;1584736;89;20552;-74
2021/03/09 13:43:59;;;;;;;;;;;;;;;4.59;63.24;101279.25;1601866;88;20554;-74
2021/03/09 13:46:47;;;;;;;;;;;;;;;4.60;62.88;101278.83;1598322;88;20309;-74
2021/03/09 13:49:32;;;;;;;;;;;;;;;4.58;62.99;101277.52;1604117;88;20277;-74
2021/03/09 13:52:16;;;;;;;;;;;;;;;4.57;62.77;101274.52;1600825;88;20281;-74
2021/03/09 13:55:01;;;;;;;;;;;;;;;4.58;62.99;101272.41;1604496;87;20288;-74
2021/03/09 13:57:46;;;;;;;;;;;;;;;4.58;62.81;101273.68;1603590;88;20288;-75
2021/03/09 14:00:30;;;;;;;;;;;;;;;4.61;62.78;101272.88;1604740;87;20308;-74
2021/03/09 14:03:15;;;;;;;;;;;;;;;4.63;62.67;101274.63;1606083;87;20323;-75
2021/03/09 14:05:59;;;;;;;;;;;;;;;4.72;62.67;101273.05;1604881;88;20281;-76
2021/03/09 14:08:44;;;;;;;;;;;;;;;4.80;62.68;101271.07;1606354;88;20280;-75
2021/03/09 14:11:28;;;;;;;;;;;;;;;4.82;62.65;101271.09;1595077;88;20830;-76
2021/03/09 14:14:13;;;;;;;;;;;;;;;4.81;62.56;101265.11;1606223;87;20287;-76
2021/03/09 14:16:58;;;;;;;;;;;;;;;4.80;62.51;101263.38;1591079;87;20292;-76
2021/03/09 14:19:43;;;;;;;;;;;;;;;4.82;62.56;101259.56;1592632;89;20272;-76
2021/03/09 14:22:28;;;;;;;;;;;;;;;4.83;62.41;101266.00;1606471;87;20516;-76
2021/03/09 14:25:14;;;;;;;;;;;;;;;4.86;62.38;101264.78;1606820;88;20311;-76